Terminal Aerodrome Forecast
Issued by NWS

Home | Current Version | Previous Version | Text Only | Print | Product List | Glossary On
Versions: 1 2 3 4 5 6 7 8 9 10 11 12 13 14
000
FTUS45 KRIW 250853 AAB
TAFJAC
TAF AMD
KJAC 250853Z 2509/2606 19011KT P6SM VCSH BKN015
      TEMPO 2509/2511 3SM -SHSN
     FM251100 21008KT P6SM VCSH SCT015 BKN030
     FM251600 29007KT P6SM VCSH SCT020 BKN035
     FM251900 34010KT P6SM SCT030 BKN045
     FM260100 36006KT P6SM SCT050
      AMD LTD TO CLD VIS AND WIND=

USA.gov is the U.S. government's official web portal to all federal, state and local government web resources and services.